Cape Girardeau, MO (63701)

1:39 AM CDT on July 27, 2016 (GMT -0500)
Cape Girardeau | | Change Station

Elev 404 ft 37.34 °N, 89.57 °W | Updated 4 minutes ago

Clear
Clear
74.5 °F
Feels Like 73 °F
N
0.0
Wind Variable Wind from West

Today
High -- | Low -- °F
--% Chance of Precip.
Yesterday
High -- | Low -- °F
Precip. -- in
Pressure 29.96 in
Visibility 9.0 miles
Clouds Clear
Heat Index 73 °F
Dew Point 72 °F
Humidity 91%
Rainfall 0.00 in
Snow Depth Not available.
5:59 AM 8:09 PM
Waning Gibbous, 46% visible
METAR KCGI 270553Z AUTO 03003KT 9SM CLR 24/23 A2997 RMK AO2 SLP143 T02390228 10250 20233 403170233 56009
Pressure 29.96 in
Visibility 9.0 miles
Clouds Clear
Heat Index 73 °F
Dew Point 72 °F
Humidity 91%
Rainfall 0.00 in
Snow Depth Not available.
5:59 AM 8:09 PM
Waning Gibbous, 46% visible
METAR KCGI 270553Z AUTO 03003KT 9SM CLR 24/23 A2997 RMK AO2 SLP143 T02390228 10250 20233 403170233 56009

10-Day Weather Forecast

Almanac

Astronomy

Jul. 27, 2016 Rise Set
Actual Time
Civil Twilight
Nautical Twilight
Astronomical Twilight
Moon
Length of Visible Light
Length of Day
Tomorrow will be .
, % of the Moon is Illuminated

Today's Extremes

State Highs State Lows

Community

WunderPhotos

Upload Photos

1,927,818 photos uploaded!

WunderBlog® & News

Nearby

Air Quality

  Air Quality AQ Index Pollutant
Not available.

Snow Depth

Station Depth Elevation

Earthquake Activity

City Distance Mag. Time & Date
Minimum magnitude displayed is 2.5.

Coastal Water Temperatures

Place Temperature

Stations

Nearby Weather Stations

Station Location Temp. Windchill Dew Point Humidity Wind Precip. Elev Updated Type
                   

Watches & Warnings

There are currently no watches in effect.